Gure Amuitz — EASO — position and weather

sailwx.info

Track history (hours):
 
Tides and Currents Weather Stations Pressure Air Temp Water Temp Dewpoint Dewpoint Depression Visibility Wind Speed Wind Dir Waves Ship Positions

Gure Amuitz

Last reported at 2015-Apr-17 20:31 UTC. Time now 2015-Apr-18 05:00 UTC.
Position N 43°23' W 001°48'.

Length 28 m.

Type: Fishing. MMSI: 224010590.

Date/timePositionNaut miles runAvg speedWind from/ knotsBaromVisibWave heightAir tempDewpointWater temp
2015-Apr-17 20:31N 43°23' W 001°48'0 0.0
2015-Apr-17 19:33N 43°23' W 001°48'0 0.1
2015-Apr-17 18:33N 43°23' W 001°47'0 0.0
2015-Apr-17 17:34N 43°23' W 001°47'5 4.4
2015-Apr-17 16:31N 43°28' W 001°47'8 7.8
2015-Apr-17 15:32N 43°36' W 001°47'62 7.6
2015-Apr-17 07:18N 44°38' W 001°45'2 0.7
2015-Apr-17 04:17N 44°40' W 001°45'67 9.9
2015-Apr-16 21:31N 43°33' W 001°46'1010.1
2015-Apr-16 20:33N 43°23' W 001°47'1 0.5
2015-Apr-16 19:33N 43°23' W 001°48'0 0.0
2015-Apr-16 18:33N 43°23' W 001°48'7 7.1
2015-Apr-16 17:33N 43°30' W 001°47'6410.5
2015-Apr-16 11:29N 44°34' W 001°45'0 0.2
2015-Apr-16 10:33N 44°34' W 001°45'0 0.1
2015-Apr-16 09:32N 44°34' W 001°45'4 3.8
2015-Apr-16 08:32N 44°32' W 001°41'0 0.4
2015-Apr-16 07:33N 44°31' W 001°41'2 1.9
2015-Apr-16 06:33N 44°31' W 001°38'2 1.1
2015-Apr-16 04:26N 44°28' W 001°38'4 1.8
2015-Apr-16 02:24N 44°25' W 001°36'0 0.1
2015-Apr-16 01:33N 44°25' W 001°36'0 0.3
2015-Apr-16 00:33N 44°25' W 001°36'8 1.8
2015-Apr-15 20:14N 44°18' W 001°41'35 9.2
2015-Apr-15 16:26N 43°43' W 001°42'8 9.4
2015-Apr-15 15:34N 43°35' W 001°44'10 9.8
2015-Apr-15 14:33N 43°26' W 001°47'2 2.5
2015-Apr-15 13:34N 43°23' W 001°48'0 0.0
2015-Apr-15 12:34N 43°23' W 001°48'3 3.0
2015-Apr-15 11:32N 43°26' W 001°46'10 9.7
2015-Apr-15 10:31N 43°36' W 001°44'13 9.6
2015-Apr-15 09:12N 43°48' W 001°43'6 9.8
2015-Apr-15 08:33N 43°55' W 001°42'10 9.8
2015-Apr-15 07:34N 44°04' W 001°41'10 9.8
2015-Apr-15 06:33N 44°14' W 001°38'2 1.8
2015-Apr-15 05:33N 44°16' W 001°38'2 2.5
2015-Apr-15 04:33N 44°14' W 001°41'0 0.5
2015-Apr-15 03:32N 44°14' W 001°41'0 0.1
2015-Apr-15 02:15N 44°14' W 001°41'4 2.0
2015-Apr-15 00:10N 44°17' W 001°45'7 1.8
2015-Apr-14 20:31N 44°12' W 001°38'31 3.4
2015-Apr-14 11:25N 43°42' W 001°48'10 8.9
2015-Apr-14 10:20N 43°33' W 001°48'0 0.5
2015-Apr-14 09:30N 43°32' W 001°48'5 5.4
2015-Apr-14 08:33N 43°27' W 001°47'3 3.4
2015-Apr-14 07:33N 43°24' W 001°47'11 3.4
2015-Apr-14 04:12N 43°33' W 001°57'6 9.2
2015-Apr-14 03:33N 43°38' W 001°53'9 9.2
2015-Apr-14 02:33N 43°46' W 001°47'9 8.9
2015-Apr-14 01:32N 43°54' W 001°42'4 3.2
2015-Apr-14 00:23N 43°55' W 001°47'33 4.8
2015-Apr-13 17:26N 43°24' W 002°03'910.3
2015-Apr-13 16:34N 43°24' W 001°50'2 2.1
2015-Apr-13 15:34N 43°23' W 001°48'0 0.1
2015-Apr-13 14:34N 43°23' W 001°47'10 1.9
2015-Apr-13 09:08N 43°31' W 001°57'610.3
2015-Apr-13 08:33N 43°31' W 001°49'8 7.9
2015-Apr-13 07:33N 43°23' W 001°48'0 0.0
2015-Apr-13 06:33N 43°23' W 001°48'  
2015-Apr-10 08:34N 43°23' W 001°47'0 0.1
2015-Apr-10 07:34N 43°23' W 001°47'0 0.0
2015-Apr-10 06:33N 43°23' W 001°47'0 0.0
2015-Apr-10 05:34N 43°23' W 001°47'4 3.8
2015-Apr-10 04:33N 43°27' W 001°47'9 9.0
2015-Apr-10 03:33N 43°36' W 001°49'2 1.5
2015-Apr-10 02:29N 43°37' W 001°49'1 0.1
2015-Apr-09 19:12N 43°37' W 001°50'4 6.7
2015-Apr-09 18:33N 43°33' W 001°47'2 1.8
2015-Apr-09 17:33N 43°35' W 001°47'1 1.1
2015-Apr-09 16:32N 43°34' W 001°46'8 8.3
2015-Apr-09 15:33N 43°26' W 001°47'2 0.8
2015-Apr-09 12:33N 43°23' W 001°47'0 0.0
2015-Apr-09 11:33N 43°23' W 001°47'0 0.3
2015-Apr-09 10:33N 43°23' W 001°47'9 9.5
2015-Apr-09 09:33N 43°32' W 001°52'10 9.4
2015-Apr-09 08:32N 43°41' W 001°57'9 8.9
2015-Apr-09 07:33N 43°49' W 002°01'1 0.8
2015-Apr-09 06:30N 43°49' W 002°02'7 1.5
2015-Apr-09 02:06N 43°52' W 001°54'5 5.3
2015-Apr-09 01:10N 43°48' W 001°50'2 2.6
2015-Apr-09 00:32N 43°50' W 001°50'4 3.7
2015-Apr-08 23:27N 43°52' W 001°45'13 4.5
2015-Apr-08 20:30N 43°39' W 001°51'8 7.5
2015-Apr-08 19:29N 43°31' W 001°52'6 5.7
2015-Apr-08 18:30N 43°31' W 001°44'0 0.1
2015-Apr-08 17:33N 43°31' W 001°44'2 2.2
2015-Apr-08 16:31N 43°31' W 001°47'8 8.3
2015-Apr-08 15:33N 43°23' W 001°47'0 0.0
2015-Apr-08 12:04N 43°23' W 001°47'0 0.0
2015-Apr-08 11:33N 43°23' W 001°47'0 0.0
2015-Apr-08 10:34N 43°23' W 001°47'0 0.0
2015-Apr-08 09:33N 43°23' W 001°47'0 0.1
2015-Apr-08 08:33N 43°23' W 001°48'0 0.0
2015-Apr-08 07:33N 43°23' W 001°48'0 0.0
2015-Apr-08 06:34N 43°23' W 001°48'0 0.1
2015-Apr-08 05:33N 43°23' W 001°47'3 3.2
2015-Apr-08 04:33N 43°26' W 001°46'9 9.3
2015-Apr-08 03:33N 43°35' W 001°44'6 2.7
2015-Apr-08 01:23N 43°41' W 001°43'0 0.1
2015-Apr-08 00:33N 43°41' W 001°43'1 0.6
2015-Apr-07 23:31N 43°41' W 001°43'1 0.4
2015-Apr-07 22:04N 43°41' W 001°42'2 3.0
2015-Apr-07 21:32N 43°39' W 001°42'  
Track history (hours):
 
Tides and Currents Weather Stations Pressure Air Temp Water Temp Dewpoint Dewpoint Depression Visibility Wind Speed Wind Dir Waves Ship Positions

Gure Amuitz

Last reported at 2015-Apr-17 20:31 UTC. Time now 2015-Apr-18 05:00 UTC.
Position N 43°23' W 001°48'.

Length 28 m.

Type: Fishing. MMSI: 224010590.

Date/timePositionNaut miles runAvg speedWind from/ knotsBaromVisibWave heightAir tempDewpointWater temp
2015-Apr-17 20:31N 43°23' W 001°48'0 0.0
2015-Apr-17 19:33N 43°23' W 001°48'0 0.1
2015-Apr-17 18:33N 43°23' W 001°47'0 0.0
2015-Apr-17 17:34N 43°23' W 001°47'5 4.4
2015-Apr-17 16:31N 43°28' W 001°47'8 7.8
2015-Apr-17 15:32N 43°36' W 001°47'62 7.6
2015-Apr-17 07:18N 44°38' W 001°45'2 0.7
2015-Apr-17 04:17N 44°40' W 001°45'67 9.9
2015-Apr-16 21:31N 43°33' W 001°46'1010.1
2015-Apr-16 20:33N 43°23' W 001°47'1 0.5
2015-Apr-16 19:33N 43°23' W 001°48'0 0.0
2015-Apr-16 18:33N 43°23' W 001°48'7 7.1
2015-Apr-16 17:33N 43°30' W 001°47'6410.5
2015-Apr-16 11:29N 44°34' W 001°45'0 0.2
2015-Apr-16 10:33N 44°34' W 001°45'0 0.1
2015-Apr-16 09:32N 44°34' W 001°45'4 3.8
2015-Apr-16 08:32N 44°32' W 001°41'0 0.4
2015-Apr-16 07:33N 44°31' W 001°41'2 1.9
2015-Apr-16 06:33N 44°31' W 001°38'2 1.1
2015-Apr-16 04:26N 44°28' W 001°38'4 1.8
2015-Apr-16 02:24N 44°25' W 001°36'0 0.1
2015-Apr-16 01:33N 44°25' W 001°36'0 0.3
2015-Apr-16 00:33N 44°25' W 001°36'8 1.8
2015-Apr-15 20:14N 44°18' W 001°41'35 9.2
2015-Apr-15 16:26N 43°43' W 001°42'8 9.4
2015-Apr-15 15:34N 43°35' W 001°44'10 9.8
2015-Apr-15 14:33N 43°26' W 001°47'2 2.5
2015-Apr-15 13:34N 43°23' W 001°48'0 0.0
2015-Apr-15 12:34N 43°23' W 001°48'3 3.0
2015-Apr-15 11:32N 43°26' W 001°46'10 9.7
2015-Apr-15 10:31N 43°36' W 001°44'13 9.6
2015-Apr-15 09:12N 43°48' W 001°43'6 9.8
2015-Apr-15 08:33N 43°55' W 001°42'10 9.8
2015-Apr-15 07:34N 44°04' W 001°41'10 9.8
2015-Apr-15 06:33N 44°14' W 001°38'2 1.8
2015-Apr-15 05:33N 44°16' W 001°38'2 2.5
2015-Apr-15 04:33N 44°14' W 001°41'0 0.5
2015-Apr-15 03:32N 44°14' W 001°41'0 0.1
2015-Apr-15 02:15N 44°14' W 001°41'4 2.0
2015-Apr-15 00:10N 44°17' W 001°45'7 1.8
2015-Apr-14 20:31N 44°12' W 001°38'31 3.4
2015-Apr-14 11:25N 43°42' W 001°48'10 8.9
2015-Apr-14 10:20N 43°33' W 001°48'0 0.5
2015-Apr-14 09:30N 43°32' W 001°48'5 5.4
2015-Apr-14 08:33N 43°27' W 001°47'3 3.4
2015-Apr-14 07:33N 43°24' W 001°47'11 3.4
2015-Apr-14 04:12N 43°33' W 001°57'6 9.2
2015-Apr-14 03:33N 43°38' W 001°53'9 9.2
2015-Apr-14 02:33N 43°46' W 001°47'9 8.9
2015-Apr-14 01:32N 43°54' W 001°42'4 3.2
2015-Apr-14 00:23N 43°55' W 001°47'33 4.8
2015-Apr-13 17:26N 43°24' W 002°03'910.3
2015-Apr-13 16:34N 43°24' W 001°50'2 2.1
2015-Apr-13 15:34N 43°23' W 001°48'0 0.1
2015-Apr-13 14:34N 43°23' W 001°47'10 1.9
2015-Apr-13 09:08N 43°31' W 001°57'610.3
2015-Apr-13 08:33N 43°31' W 001°49'8 7.9
2015-Apr-13 07:33N 43°23' W 001°48'0 0.0
2015-Apr-13 06:33N 43°23' W 001°48'  
2015-Apr-10 08:34N 43°23' W 001°47'0 0.1
2015-Apr-10 07:34N 43°23' W 001°47'0 0.0
2015-Apr-10 06:33N 43°23' W 001°47'0 0.0
2015-Apr-10 05:34N 43°23' W 001°47'4 3.8
2015-Apr-10 04:33N 43°27' W 001°47'9 9.0
2015-Apr-10 03:33N 43°36' W 001°49'2 1.5
2015-Apr-10 02:29N 43°37' W 001°49'1 0.1
2015-Apr-09 19:12N 43°37' W 001°50'4 6.7
2015-Apr-09 18:33N 43°33' W 001°47'2 1.8
2015-Apr-09 17:33N 43°35' W 001°47'1 1.1
2015-Apr-09 16:32N 43°34' W 001°46'8 8.3
2015-Apr-09 15:33N 43°26' W 001°47'2 0.8
2015-Apr-09 12:33N 43°23' W 001°47'0 0.0
2015-Apr-09 11:33N 43°23' W 001°47'0 0.3
2015-Apr-09 10:33N 43°23' W 001°47'9 9.5
2015-Apr-09 09:33N 43°32' W 001°52'10 9.4
2015-Apr-09 08:32N 43°41' W 001°57'9 8.9
2015-Apr-09 07:33N 43°49' W 002°01'1 0.8
2015-Apr-09 06:30N 43°49' W 002°02'7 1.5
2015-Apr-09 02:06N 43°52' W 001°54'5 5.3
2015-Apr-09 01:10N 43°48' W 001°50'2 2.6
2015-Apr-09 00:32N 43°50' W 001°50'4 3.7
2015-Apr-08 23:27N 43°52' W 001°45'13 4.5
2015-Apr-08 20:30N 43°39' W 001°51'8 7.5
2015-Apr-08 19:29N 43°31' W 001°52'6 5.7
2015-Apr-08 18:30N 43°31' W 001°44'0 0.1
2015-Apr-08 17:33N 43°31' W 001°44'2 2.2
2015-Apr-08 16:31N 43°31' W 001°47'8 8.3
2015-Apr-08 15:33N 43°23' W 001°47'0 0.0
2015-Apr-08 12:04N 43°23' W 001°47'0 0.0
2015-Apr-08 11:33N 43°23' W 001°47'0 0.0
2015-Apr-08 10:34N 43°23' W 001°47'0 0.0
2015-Apr-08 09:33N 43°23' W 001°47'0 0.1
2015-Apr-08 08:33N 43°23' W 001°48'0 0.0
2015-Apr-08 07:33N 43°23' W 001°48'0 0.0
2015-Apr-08 06:34N 43°23' W 001°48'0 0.1
2015-Apr-08 05:33N 43°23' W 001°47'3 3.2
2015-Apr-08 04:33N 43°26' W 001°46'9 9.3
2015-Apr-08 03:33N 43°35' W 001°44'6 2.7
2015-Apr-08 01:23N 43°41' W 001°43'0 0.1
2015-Apr-08 00:33N 43°41' W 001°43'1 0.6
2015-Apr-07 23:31N 43°41' W 001°43'1 0.4
2015-Apr-07 22:04N 43°41' W 001°42'2 3.0
2015-Apr-07 21:32N 43°39' W 001°42'  

Dump ship's entire track history